sensor_id;sensor_type;location;lat;lon;timestamp;pressure;altitude;pressure_sealevel;temperature;humidity
68628;BME280;55611;48.602;9.490;2023-04-15T00:00:10;95960;;;7.7;56
68628;BME280;55611;48.602;9.490;2023-04-15T00:02:41;95950;;;7.5;56
68628;BME280;55611;48.602;9.490;2023-04-15T00:05:11;95950;;;7.6;56
68628;BME280;55611;48.602;9.490;2023-04-15T00:07:42;95950;;;7.5;56
68628;BME280;55611;48.602;9.490;2023-04-15T00:10:12;95950;;;7.6;56
68628;BME280;55611;48.602;9.490;2023-04-15T00:12:43;95940;;;7.6;56
68628;BME280;55611;48.602;9.490;2023-04-15T00:15:13;95940;;;7.6;56
68628;BME280;55611;48.602;9.490;2023-04-15T00:17:44;95940;;;7.6;56
68628;BME280;55611;48.602;9.490;2023-04-15T00:20:14;95940;;;7.7;56.5
68628;BME280;55611;48.602;9.490;2023-04-15T00:22:45;95940;;;7.7;56.5
68628;BME280;55611;48.602;9.490;2023-04-15T00:25:15;95940;;;7.7;56.5
68628;BME280;55611;48.602;9.490;2023-04-15T00:27:46;95940;;;7.7;56.5
68628;BME280;55611;48.602;9.490;2023-04-15T00:30:16;95940;;;7.7;56.5
68628;BME280;55611;48.602;9.490;2023-04-15T00:32:47;95940;;;7.7;56.5
68628;BME280;55611;48.602;9.490;2023-04-15T00:35:17;95940;;;7.6;56.5
68628;BME280;55611;48.602;9.490;2023-04-15T00:37:48;95940;;;7.6;56.5
68628;BME280;55611;48.602;9.490;2023-04-15T00:40:19;95930;;;7.7;56.5
68628;BME280;55611;48.602;9.490;2023-04-15T00:42:49;95930;;;7.7;56.5
68628;BME280;55611;48.602;9.490;2023-04-15T00:45:19;95930;;;7.7;56
68628;BME280;55611;48.602;9.490;2023-04-15T00:47:50;95930;;;7.6;56.5
68628;BME280;55611;48.602;9.490;2023-04-15T00:50:20;95930;;;7.6;56.5
68628;BME280;55611;48.602;9.490;2023-04-15T00:52:51;95930;;;7.6;56.5
68628;BME280;55611;48.602;9.490;2023-04-15T00:55:21;95930;;;7.6;56.5
68628;BME280;55611;48.602;9.490;2023-04-15T00:57:52;95930;;;7.6;56.5
68628;BME280;55611;48.602;9.490;2023-04-15T01:00:22;95930;;;7.5;56.5
68628;BME280;55611;48.602;9.490;2023-04-15T01:02:53;95930;;;7.5;56.5
68628;BME280;55611;48.602;9.490;2023-04-15T01:05:23;95930;;;7.5;56.5
68628;BME280;55611;48.602;9.490;2023-04-15T01:07:54;95930;;;7.5;56.5
68628;BME280;55611;48.602;9.490;2023-04-15T01:10:25;95930;;;7.5;56.5
68628;BME280;55611;48.602;9.490;2023-04-15T01:12:55;95930;;;7.4;56.5
68628;BME280;55611;48.602;9.490;2023-04-15T01:15:26;95930;;;7.3;56.5
68628;BME280;55611;48.602;9.490;2023-04-15T01:17:57;95930;;;7.3;56.5
68628;BME280;55611;48.602;9.490;2023-04-15T01:20:27;95930;;;7.3;56.5
68628;BME280;55611;48.602;9.490;2023-04-15T01:22:57;95930;;;7.2;56.5
68628;BME280;55611;48.602;9.490;2023-04-15T01:25:31;95930;;;7.3;56.5
68628;BME280;55611;48.602;9.490;2023-04-15T01:27:58;95930;;;7.4;56.5
68628;BME280;55611;48.602;9.490;2023-04-15T01:30:32;95920;;;7.4;56.5
68628;BME280;55611;48.602;9.490;2023-04-15T01:32:59;95930;;;7.4;56.5
68628;BME280;55611;48.602;9.490;2023-04-15T01:35:30;95920;;;7.4;56.5
68628;BME280;55611;48.602;9.490;2023-04-15T01:38:07;95930;;;7.4;56
68628;BME280;55611;48.602;9.490;2023-04-15T01:40:31;95920;;;7.3;56
68628;BME280;55611;48.602;9.490;2023-04-15T01:43:01;95920;;;7.3;56
68628;BME280;55611;48.602;9.490;2023-04-15T01:45:32;95920;;;7.2;56
68628;BME280;55611;48.602;9.490;2023-04-15T01:48:02;95920;;;7.2;56
68628;BME280;55611;48.602;9.490;2023-04-15T01:50:33;95920;;;7.3;56
68628;BME280;55611;48.602;9.490;2023-04-15T01:53:03;95920;;;7.5;56.5
68628;BME280;55611;48.602;9.490;2023-04-15T01:55:34;95920;;;7.5;56.5
68628;BME280;55611;48.602;9.490;2023-04-15T01:58:04;95920;;;7.5;56.5
68628;BME280;55611;48.602;9.490;2023-04-15T02:00:35;95920;;;7.6;56.5
68628;BME280;55611;48.602;9.490;2023-04-15T02:03:05;95920;;;7.7;56.5
68628;BME280;55611;48.602;9.490;2023-04-15T02:05:36;95920;;;7.5;56.5
68628;BME280;55611;48.602;9.490;2023-04-15T02:08:06;95920;;;7.3;56.5
68628;BME280;55611;48.602;9.490;2023-04-15T02:10:37;95920;;;7.3;56.5
68628;BME280;55611;48.602;9.490;2023-04-15T02:13:07;95920;;;7.2;56.5
68628;BME280;55611;48.602;9.490;2023-04-15T02:15:38;95920;;;7;56.5
68628;BME280;55611;48.602;9.490;2023-04-15T02:18:08;95920;;;6.9;56.5
68628;BME280;55611;48.602;9.490;2023-04-15T02:20:39;95910;;;6.9;56.5
68628;BME280;55611;48.602;9.490;2023-04-15T02:23:09;95910;;;6.9;56.5
68628;BME280;55611;48.602;9.490;2023-04-15T02:25:40;95910;;;6.9;56.5
68628;BME280;55611;48.602;9.490;2023-04-15T02:28:10;95910;;;6.8;56.5
68628;BME280;55611;48.602;9.490;2023-04-15T02:30:41;95910;;;6.7;56.5
68628;BME280;55611;48.602;9.490;2023-04-15T02:33:12;95910;;;6.7;56.5
68628;BME280;55611;48.602;9.490;2023-04-15T02:35:42;95910;;;6.7;56.5
68628;BME280;55611;48.602;9.490;2023-04-15T02:38:13;95910;;;6.7;56.5
68628;BME280;55611;48.602;9.490;2023-04-15T02:40:43;95910;;;6.6;56.5
68628;BME280;55611;48.602;9.490;2023-04-15T02:43:14;95910;;;6.6;56.5
68628;BME280;55611;48.602;9.490;2023-04-15T02:45:45;95910;;;6.6;56.5
68628;BME280;55611;48.602;9.490;2023-04-15T02:48:15;95910;;;6.6;56.5
68628;BME280;55611;48.602;9.490;2023-04-15T02:50:45;95910;;;6.6;56.5
68628;BME280;55611;48.602;9.490;2023-04-15T02:53:16;95900;;;6.6;56.5
68628;BME280;55611;48.602;9.490;2023-04-15T02:55:46;95900;;;6.6;56.5
68628;BME280;55611;48.602;9.490;2023-04-15T02:58:17;95900;;;6.6;56.5
68628;BME280;55611;48.602;9.490;2023-04-15T03:00:47;95900;;;6.6;56.5
68628;BME280;55611;48.602;9.490;2023-04-15T03:03:18;95900;;;6.6;56.5
68628;BME280;55611;48.602;9.490;2023-04-15T03:05:48;95910;;;6.5;56.5
68628;BME280;55611;48.602;9.490;2023-04-15T03:08:19;95910;;;6.5;57
68628;BME280;55611;48.602;9.490;2023-04-15T03:10:49;95910;;;6.5;56.5
68628;BME280;55611;48.602;9.490;2023-04-15T03:13:20;95910;;;6.5;56.5
68628;BME280;55611;48.602;9.490;2023-04-15T03:15:50;95910;;;6.6;56.5
68628;BME280;55611;48.602;9.490;2023-04-15T03:18:21;95910;;;6.6;56.5
68628;BME280;55611;48.602;9.490;2023-04-15T03:20:51;95910;;;6.5;56.5
68628;BME280;55611;48.602;9.490;2023-04-15T03:23:22;95910;;;6.6;56.5
68628;BME280;55611;48.602;9.490;2023-04-15T03:25:52;95910;;;6.6;57
68628;BME280;55611;48.602;9.490;2023-04-15T03:28:23;95910;;;6.6;57
68628;BME280;55611;48.602;9.490;2023-04-15T03:30:53;95910;;;6.7;57
68628;BME280;55611;48.602;9.490;2023-04-15T03:33:24;95910;;;6.7;57
68628;BME280;55611;48.602;9.490;2023-04-15T03:35:54;95920;;;6.6;57
68628;BME280;55611;48.602;9.490;2023-04-15T03:38:25;95910;;;6.6;57
68628;BME280;55611;48.602;9.490;2023-04-15T03:40:55;95910;;;6.6;57
68628;BME280;55611;48.602;9.490;2023-04-15T03:43:26;95910;;;6.6;56.5
68628;BME280;55611;48.602;9.490;2023-04-15T03:45:56;95910;;;6.6;56.5
68628;BME280;55611;48.602;9.490;2023-04-15T03:48:27;95910;;;6.6;56.5
68628;BME280;55611;48.602;9.490;2023-04-15T03:50:57;95910;;;6.5;57
68628;BME280;55611;48.602;9.490;2023-04-15T03:53:28;95910;;;6.5;57
68628;BME280;55611;48.602;9.490;2023-04-15T03:55:58;95910;;;6.5;57
68628;BME280;55611;48.602;9.490;2023-04-15T03:58:29;95910;;;6.4;56.5
68628;BME280;55611;48.602;9.490;2023-04-15T04:00:59;95910;;;6.4;56.5
68628;BME280;55611;48.602;9.490;2023-04-15T04:03:30;95910;;;6.4;56.5
68628;BME280;55611;48.602;9.490;2023-04-15T04:06:01;95910;;;6.4;56.5
68628;BME280;55611;48.602;9.490;2023-04-15T04:08:31;95910;;;6.4;56.5
68628;BME280;55611;48.602;9.490;2023-04-15T04:11:02;95910;;;6.4;56.5
68628;BME280;55611;48.602;9.490;2023-04-15T04:13:32;95920;;;6.5;56.5
68628;BME280;55611;48.602;9.490;2023-04-15T04:16:03;95920;;;6.5;56.5
68628;BME280;55611;48.602;9.490;2023-04-15T04:18:33;95920;;;6.4;57
68628;BME280;55611;48.602;9.490;2023-04-15T04:21:04;95930;;;6.3;57
68628;BME280;55611;48.602;9.490;2023-04-15T04:23:34;95930;;;6.3;57
68628;BME280;55611;48.602;9.490;2023-04-15T04:26:05;95940;;;6.3;57
68628;BME280;55611;48.602;9.490;2023-04-15T04:28:35;95940;;;6.3;56.5
68628;BME280;55611;48.602;9.490;2023-04-15T04:31:06;95940;;;6.4;56.5
68628;BME280;55611;48.602;9.490;2023-04-15T04:33:36;95940;;;6.4;56.5
68628;BME280;55611;48.602;9.490;2023-04-15T04:36:07;95950;;;6.3;56.5
68628;BME280;55611;48.602;9.490;2023-04-15T04:38:37;95950;;;6.3;56.5
68628;BME280;55611;48.602;9.490;2023-04-15T04:41:08;95950;;;6.2;56.5
68628;BME280;55611;48.602;9.490;2023-04-15T04:43:38;95950;;;6.1;57
68628;BME280;55611;48.602;9.490;2023-04-15T04:46:09;95950;;;6.1;57
68628;BME280;55611;48.602;9.490;2023-04-15T04:48:39;95950;;;6.2;57
68628;BME280;55611;48.602;9.490;2023-04-15T04:51:10;95950;;;6.2;57
68628;BME280;55611;48.602;9.490;2023-04-15T04:53:40;95960;;;6.2;56.5
68628;BME280;55611;48.602;9.490;2023-04-15T04:56:11;95950;;;6.2;56.5
68628;BME280;55611;48.602;9.490;2023-04-15T04:58:41;95960;;;6.1;56.5
68628;BME280;55611;48.602;9.490;2023-04-15T05:01:12;95960;;;6.1;56.5
68628;BME280;55611;48.602;9.490;2023-04-15T05:03:42;95950;;;6.1;56.5
68628;BME280;55611;48.602;9.490;2023-04-15T05:06:13;95950;;;6.1;56.5
68628;BME280;55611;48.602;9.490;2023-04-15T05:08:43;95950;;;6.1;56.5
68628;BME280;55611;48.602;9.490;2023-04-15T05:11:14;95940;;;6.1;56.5
68628;BME280;55611;48.602;9.490;2023-04-15T05:13:44;95940;;;6.1;56.5
68628;BME280;55611;48.602;9.490;2023-04-15T05:16:15;95940;;;6.1;57
68628;BME280;55611;48.602;9.490;2023-04-15T05:18:45;95940;;;6.1;57
68628;BME280;55611;48.602;9.490;2023-04-15T05:21:16;95940;;;6.1;57
68628;BME280;55611;48.602;9.490;2023-04-15T05:23:47;95930;;;6.1;57
68628;BME280;55611;48.602;9.490;2023-04-15T05:26:17;95940;;;6.2;57
68628;BME280;55611;48.602;9.490;2023-04-15T05:28:48;95940;;;6.2;57
68628;BME280;55611;48.602;9.490;2023-04-15T05:31:18;95940;;;6.2;57
68628;BME280;55611;48.602;9.490;2023-04-15T05:33:49;95940;;;6.3;57
68628;BME280;55611;48.602;9.490;2023-04-15T05:36:19;95950;;;6.3;57
68628;BME280;55611;48.602;9.490;2023-04-15T05:38:50;95950;;;6.4;57
68628;BME280;55611;48.602;9.490;2023-04-15T05:41:20;95950;;;6.6;57
68628;BME280;55611;48.602;9.490;2023-04-15T05:43:51;95950;;;6.6;57
68628;BME280;55611;48.602;9.490;2023-04-15T05:46:21;95950;;;6.6;57
68628;BME280;55611;48.602;9.490;2023-04-15T05:48:52;95950;;;6.6;57.5
68628;BME280;55611;48.602;9.490;2023-04-15T05:51:22;95950;;;6.7;57
68628;BME280;55611;48.602;9.490;2023-04-15T05:53:53;95960;;;6.7;57
68628;BME280;55611;48.602;9.490;2023-04-15T05:56:23;95960;;;6.8;57
68628;BME280;55611;48.602;9.490;2023-04-15T05:58:54;95960;;;6.9;57
68628;BME280;55611;48.602;9.490;2023-04-15T06:01:24;95960;;;7;57.5
68628;BME280;55611;48.602;9.490;2023-04-15T06:03:55;95950;;;7.1;57.5
68628;BME280;55611;48.602;9.490;2023-04-15T06:06:25;95960;;;7.2;57.5
68628;BME280;55611;48.602;9.490;2023-04-15T06:08:56;95960;;;7.4;57
68628;BME280;55611;48.602;9.490;2023-04-15T06:11:26;95960;;;7.4;57.5
68628;BME280;55611;48.602;9.490;2023-04-15T06:13:57;95960;;;7.5;57
68628;BME280;55611;48.602;9.490;2023-04-15T06:16:27;95970;;;7.6;57.5
68628;BME280;55611;48.602;9.490;2023-04-15T06:18:58;95960;;;7.7;57.5
68628;BME280;55611;48.602;9.490;2023-04-15T06:21:28;95960;;;7.9;57.5
68628;BME280;55611;48.602;9.490;2023-04-15T06:23:59;95970;;;8;57.5
68628;BME280;55611;48.602;9.490;2023-04-15T06:26:29;95970;;;8.2;57.5
68628;BME280;55611;48.602;9.490;2023-04-15T06:29:00;95970;;;8.4;57.5
68628;BME280;55611;48.602;9.490;2023-04-15T06:31:30;95970;;;8.5;57.5
68628;BME280;55611;48.602;9.490;2023-04-15T06:34:01;95980;;;8.6;57.5
68628;BME280;55611;48.602;9.490;2023-04-15T06:36:32;95980;;;8.6;58
68628;BME280;55611;48.602;9.490;2023-04-15T06:39:02;95970;;;8.7;58
68628;BME280;55611;48.602;9.490;2023-04-15T06:41:32;95970;;;8.8;58
68628;BME280;55611;48.602;9.490;2023-04-15T06:44:03;95970;;;8.9;58
68628;BME280;55611;48.602;9.490;2023-04-15T06:46:33;95980;;;9;58
68628;BME280;55611;48.602;9.490;2023-04-15T06:49:04;95980;;;9.1;58
68628;BME280;55611;48.602;9.490;2023-04-15T06:51:35;95970;;;9.3;58
68628;BME280;55611;48.602;9.490;2023-04-15T06:54:05;95970;;;9.4;58
68628;BME280;55611;48.602;9.490;2023-04-15T06:56:36;95970;;;9.5;58
68628;BME280;55611;48.602;9.490;2023-04-15T06:59:06;95970;;;9.6;58
68628;BME280;55611;48.602;9.490;2023-04-15T07:01:37;95970;;;9.7;58
68628;BME280;55611;48.602;9.490;2023-04-15T07:04:07;95970;;;9.8;58
68628;BME280;55611;48.602;9.490;2023-04-15T07:06:40;95960;;;9.9;58
68628;BME280;55611;48.602;9.490;2023-04-15T07:09:08;95960;;;10;58
68628;BME280;55611;48.602;9.490;2023-04-15T07:11:39;95960;;;10.1;58
68628;BME280;55611;48.602;9.490;2023-04-15T07:14:09;95960;;;10.2;58
68628;BME280;55611;48.602;9.490;2023-04-15T07:16:40;95960;;;10.3;58
68628;BME280;55611;48.602;9.490;2023-04-15T07:19:10;95960;;;10.4;58
68628;BME280;55611;48.602;9.490;2023-04-15T07:21:41;95960;;;10.5;58
68628;BME280;55611;48.602;9.490;2023-04-15T07:24:11;95960;;;10.7;58
68628;BME280;55611;48.602;9.490;2023-04-15T07:26:42;95960;;;10.8;58
68628;BME280;55611;48.602;9.490;2023-04-15T07:29:12;95960;;;10.9;58
68628;BME280;55611;48.602;9.490;2023-04-15T07:31:43;95960;;;11;58
68628;BME280;55611;48.602;9.490;2023-04-15T07:34:13;95960;;;11;58
68628;BME280;55611;48.602;9.490;2023-04-15T07:36:44;95960;;;11.1;58
68628;BME280;55611;48.602;9.490;2023-04-15T07:41:45;95960;;;11.2;58
68628;BME280;55611;48.602;9.490;2023-04-15T07:44:15;95960;;;11.3;58
68628;BME280;55611;48.602;9.490;2023-04-15T07:46:46;95960;;;11.5;58
68628;BME280;55611;48.602;9.490;2023-04-15T07:49:16;95960;;;11.5;58
68628;BME280;55611;48.602;9.490;2023-04-15T07:51:47;95960;;;11.5;58
68628;BME280;55611;48.602;9.490;2023-04-15T07:54:17;95960;;;11.7;58
68628;BME280;55611;48.602;9.490;2023-04-15T07:56:48;95960;;;11.8;58
68628;BME280;55611;48.602;9.490;2023-04-15T07:59:18;95960;;;11.8;58
68628;BME280;55611;48.602;9.490;2023-04-15T08:01:49;95970;;;11.8;58
68628;BME280;55611;48.602;9.490;2023-04-15T08:04:20;95960;;;11.7;58
68628;BME280;55611;48.602;9.490;2023-04-15T08:06:50;95960;;;11.7;58
68628;BME280;55611;48.602;9.490;2023-04-15T08:09:20;95960;;;11.6;58
68628;BME280;55611;48.602;9.490;2023-04-15T08:11:51;95960;;;11.5;58
68628;BME280;55611;48.602;9.490;2023-04-15T08:14:22;95950;;;11.5;58
68628;BME280;55611;48.602;9.490;2023-04-15T08:16:52;95950;;;11.5;58
68628;BME280;55611;48.602;9.490;2023-04-15T08:19:23;95950;;;11.6;58
68628;BME280;55611;48.602;9.490;2023-04-15T08:21:53;95950;;;11.6;58
68628;BME280;55611;48.602;9.490;2023-04-15T08:24:24;95950;;;11.8;58
68628;BME280;55611;48.602;9.490;2023-04-15T08:26:54;95950;;;11.8;58
68628;BME280;55611;48.602;9.490;2023-04-15T08:29:25;95950;;;12;58
68628;BME280;55611;48.602;9.490;2023-04-15T08:31:55;95950;;;12.2;58
68628;BME280;55611;48.602;9.490;2023-04-15T08:34:26;95950;;;12.3;58
68628;BME280;55611;48.602;9.490;2023-04-15T08:36:56;95950;;;12.4;58
68628;BME280;55611;48.602;9.490;2023-04-15T08:39:27;95950;;;12.5;58
68628;BME280;55611;48.602;9.490;2023-04-15T08:41:59;95950;;;12.6;58
68628;BME280;55611;48.602;9.490;2023-04-15T08:44:28;95950;;;12.7;58
68628;BME280;55611;48.602;9.490;2023-04-15T08:47:01;95940;;;12.7;58
68628;BME280;55611;48.602;9.490;2023-04-15T08:49:29;95950;;;12.9;58
68628;BME280;55611;48.602;9.490;2023-04-15T08:51:59;95950;;;13.1;58
68628;BME280;55611;48.602;9.490;2023-04-15T08:54:30;95950;;;13.2;58
68628;BME280;55611;48.602;9.490;2023-04-15T08:57:00;95950;;;13.4;58
68628;BME280;55611;48.602;9.490;2023-04-15T08:59:31;95950;;;13.6;58
68628;BME280;55611;48.602;9.490;2023-04-15T09:02:01;95950;;;13.9;58
68628;BME280;55611;48.602;9.490;2023-04-15T09:04:32;95950;;;14.1;58
68628;BME280;55611;48.602;9.490;2023-04-15T09:07:02;95950;;;14.1;58
68628;BME280;55611;48.602;9.490;2023-04-15T09:09:33;95950;;;14.3;58
68628;BME280;55611;48.602;9.490;2023-04-15T09:12:03;95950;;;14.3;58
68628;BME280;55611;48.602;9.490;2023-04-15T09:14:34;95950;;;14.3;58
68628;BME280;55611;48.602;9.490;2023-04-15T09:17:04;95940;;;14.4;58
68628;BME280;55611;48.602;9.490;2023-04-15T09:19:35;95950;;;14.6;58
68628;BME280;55611;48.602;9.490;2023-04-15T09:22:05;95950;;;14.7;58
68628;BME280;55611;48.602;9.490;2023-04-15T09:24:37;95950;;;14.7;58
68628;BME280;55611;48.602;9.490;2023-04-15T09:27:06;95960;;;14.7;58
68628;BME280;55611;48.602;9.490;2023-04-15T09:29:37;95950;;;14.7;58
68628;BME280;55611;48.602;9.490;2023-04-15T09:32:08;95950;;;14.9;58
68628;BME280;55611;48.602;9.490;2023-04-15T09:34:38;95950;;;14.9;58
68628;BME280;55611;48.602;9.490;2023-04-15T09:37:09;95960;;;14.9;58
68628;BME280;55611;48.602;9.490;2023-04-15T09:39:47;95960;;;14.8;58
68628;BME280;55611;48.602;9.490;2023-04-15T09:42:10;95960;;;14.8;58
68628;BME280;55611;48.602;9.490;2023-04-15T09:44:40;95960;;;14.9;58
68628;BME280;55611;48.602;9.490;2023-04-15T09:47:25;95960;;;15;57.5
68628;BME280;55611;48.602;9.490;2023-04-15T09:49:53;95960;;;15.1;57.5
68628;BME280;55611;48.602;9.490;2023-04-15T09:52:12;95970;;;15.2;57.5
68628;BME280;55611;48.602;9.490;2023-04-15T09:54:43;95970;;;15.3;57.5
68628;BME280;55611;48.602;9.490;2023-04-15T09:57:13;95960;;;15.4;57.5
68628;BME280;55611;48.602;9.490;2023-04-15T09:59:43;95960;;;15.4;57.5
68628;BME280;55611;48.602;9.490;2023-04-15T10:02:14;95970;;;15.6;57.5
68628;BME280;55611;48.602;9.490;2023-04-15T10:04:44;95960;;;15.7;57.5
68628;BME280;55611;48.602;9.490;2023-04-15T10:07:15;95960;;;15.8;57.5
68628;BME280;55611;48.602;9.490;2023-04-15T10:09:45;95960;;;15.9;57.5
68628;BME280;55611;48.602;9.490;2023-04-15T10:12:16;95960;;;15.8;57.5
68628;BME280;55611;48.602;9.490;2023-04-15T10:14:52;95960;;;16;57.5
68628;BME280;55611;48.602;9.490;2023-04-15T10:17:17;95960;;;16;57.5
68628;BME280;55611;48.602;9.490;2023-04-15T10:19:47;95960;;;16.1;57.5
68628;BME280;55611;48.602;9.490;2023-04-15T10:22:18;95970;;;16.1;57.5
68628;BME280;55611;48.602;9.490;2023-04-15T10:24:49;95970;;;15.9;57.5
68628;BME280;55611;48.602;9.490;2023-04-15T10:27:19;95970;;;15.8;57.5
68628;BME280;55611;48.602;9.490;2023-04-15T10:29:50;95970;;;15.7;57.5
68628;BME280;55611;48.602;9.490;2023-04-15T10:32:20;95980;;;15.8;57.5
68628;BME280;55611;48.602;9.490;2023-04-15T10:34:50;95980;;;15.9;57.5
68628;BME280;55611;48.602;9.490;2023-04-15T10:37:22;95980;;;16.2;57.5
68628;BME280;55611;48.602;9.490;2023-04-15T10:39:51;95980;;;16.4;57.5
68628;BME280;55611;48.602;9.490;2023-04-15T10:42:22;95980;;;16.6;57
68628;BME280;55611;48.602;9.490;2023-04-15T10:44:55;95980;;;16.7;57
68628;BME280;55611;48.602;9.490;2023-04-15T10:47:23;95980;;;16.6;57
68628;BME280;55611;48.602;9.490;2023-04-15T10:49:58;95980;;;16.6;57
68628;BME280;55611;48.602;9.490;2023-04-15T10:52:25;95980;;;16.6;57
68628;BME280;55611;48.602;9.490;2023-04-15T10:55:02;95990;;;16.3;57
68628;BME280;55611;48.602;9.490;2023-04-15T10:57:26;95980;;;16;57
68628;BME280;55611;48.602;9.490;2023-04-15T11:00:01;95990;;;15.9;57
68628;BME280;55611;48.602;9.490;2023-04-15T11:02:42;95990;;;15.9;57
68628;BME280;55611;48.602;9.490;2023-04-15T11:04:57;95990;;;16.1;57
68628;BME280;55611;48.602;9.490;2023-04-15T11:07:58;95990;;;16.1;57
68628;BME280;55611;48.602;9.490;2023-04-15T11:09:58;95990;;;16.1;57
68628;BME280;55611;48.602;9.490;2023-04-15T11:12:35;95990;;;16.1;57
68628;BME280;55611;48.602;9.490;2023-04-15T11:14:59;95990;;;16;57
68628;BME280;55611;48.602;9.490;2023-04-15T11:17:29;95980;;;16;56.5
68628;BME280;55611;48.602;9.490;2023-04-15T11:20:00;95990;;;16.1;56.5
68628;BME280;55611;48.602;9.490;2023-04-15T11:22:30;95990;;;16.2;56.5
68628;BME280;55611;48.602;9.490;2023-04-15T11:25:01;96000;;;16;56.5
68628;BME280;55611;48.602;9.490;2023-04-15T11:27:31;96000;;;16;56.5
68628;BME280;55611;48.602;9.490;2023-04-15T11:30:15;95990;;;16.1;56.5
68628;BME280;55611;48.602;9.490;2023-04-15T11:32:32;96000;;;16;56.5
68628;BME280;55611;48.602;9.490;2023-04-15T11:35:03;96010;;;16;56.5
68628;BME280;55611;48.602;9.490;2023-04-15T11:37:33;96000;;;15.9;56.5
68628;BME280;55611;48.602;9.490;2023-04-15T11:40:05;96000;;;16.1;56.5
68628;BME280;55611;48.602;9.490;2023-04-15T11:42:34;96010;;;16.1;56
68628;BME280;55611;48.602;9.490;2023-04-15T11:45:05;96010;;;16.2;56
68628;BME280;55611;48.602;9.490;2023-04-15T11:47:36;96010;;;16.1;56
68628;BME280;55611;48.602;9.490;2023-04-15T11:50:21;96010;;;16.1;56
68628;BME280;55611;48.602;9.490;2023-04-15T11:52:37;96020;;;16.4;56
68628;BME280;55611;48.602;9.490;2023-04-15T11:55:07;96020;;;16.4;56
68628;BME280;55611;48.602;9.490;2023-04-15T11:57:40;96020;;;16.3;56
68628;BME280;55611;48.602;9.490;2023-04-15T12:00:08;96030;;;16.5;56
68628;BME280;55611;48.602;9.490;2023-04-15T12:02:38;96030;;;16.6;56
68628;BME280;55611;48.602;9.490;2023-04-15T12:05:09;96030;;;16.7;56
68628;BME280;55611;48.602;9.490;2023-04-15T12:08:11;96020;;;16.9;56
68628;BME280;55611;48.602;9.490;2023-04-15T12:10:10;96030;;;16.7;56
68628;BME280;55611;48.602;9.490;2023-04-15T12:12:40;96030;;;16.5;56
68628;BME280;55611;48.602;9.490;2023-04-15T12:15:11;96040;;;16.6;56
68628;BME280;55611;48.602;9.490;2023-04-15T12:17:42;96040;;;16.7;56
68628;BME280;55611;48.602;9.490;2023-04-15T12:20:12;96040;;;16.8;56
68628;BME280;55611;48.602;9.490;2023-04-15T12:22:43;96040;;;16.8;56
68628;BME280;55611;48.602;9.490;2023-04-15T12:25:13;96040;;;16.9;55.5
68628;BME280;55611;48.602;9.490;2023-04-15T12:27:49;96050;;;16.6;56
68628;BME280;55611;48.602;9.490;2023-04-15T12:30:14;96040;;;16.4;55.5
68628;BME280;55611;48.602;9.490;2023-04-15T12:32:45;96040;;;16.2;55.5
68628;BME280;55611;48.602;9.490;2023-04-15T12:35:15;96060;;;15.7;55.5
68628;BME280;55611;48.602;9.490;2023-04-15T12:37:46;96080;;;15;55.5
68628;BME280;55611;48.602;9.490;2023-04-15T12:40:16;96080;;;14.3;55
68628;BME280;55611;48.602;9.490;2023-04-15T12:42:47;96090;;;13.9;55
68628;BME280;55611;48.602;9.490;2023-04-15T12:45:17;96100;;;13.5;55
68628;BME280;55611;48.602;9.490;2023-04-15T12:47:48;96100;;;13.3;54.5
68628;BME280;55611;48.602;9.490;2023-04-15T12:50:18;96100;;;13.2;54.5
68628;BME280;55611;48.602;9.490;2023-04-15T12:52:49;96100;;;13.3;54.5
68628;BME280;55611;48.602;9.490;2023-04-15T12:55:19;96100;;;13.4;54.5
68628;BME280;55611;48.602;9.490;2023-04-15T12:57:50;96110;;;13.6;54.5
68628;BME280;55611;48.602;9.490;2023-04-15T13:00:21;96110;;;13.9;54.5
68628;BME280;55611;48.602;9.490;2023-04-15T13:02:51;96110;;;13.9;55
68628;BME280;55611;48.602;9.490;2023-04-15T13:05:21;96120;;;14.1;55
68628;BME280;55611;48.602;9.490;2023-04-15T13:07:52;96120;;;13.9;55
68628;BME280;55611;48.602;9.490;2023-04-15T13:10:22;96120;;;13.9;55
68628;BME280;55611;48.602;9.490;2023-04-15T13:12:53;96130;;;13.9;55
68628;BME280;55611;48.602;9.490;2023-04-15T13:15:23;96150;;;13.7;55
68628;BME280;55611;48.602;9.490;2023-04-15T13:17:54;96160;;;13.2;55
68628;BME280;55611;48.602;9.490;2023-04-15T13:20:24;96170;;;12.6;55
68628;BME280;55611;48.602;9.490;2023-04-15T13:22:55;96170;;;12;55
68628;BME280;55611;48.602;9.490;2023-04-15T13:25:25;96190;;;11.7;55
68628;BME280;55611;48.602;9.490;2023-04-15T13:27:56;96180;;;11.6;55
68628;BME280;55611;48.602;9.490;2023-04-15T13:30:27;96190;;;11.6;55
68628;BME280;55611;48.602;9.490;2023-04-15T13:32:57;96190;;;11.6;55
68628;BME280;55611;48.602;9.490;2023-04-15T13:35:28;96200;;;11.7;55
68628;BME280;55611;48.602;9.490;2023-04-15T13:37:58;96200;;;11.9;55
68628;BME280;55611;48.602;9.490;2023-04-15T13:40:29;96210;;;12.1;55
68628;BME280;55611;48.602;9.490;2023-04-15T13:42:59;96200;;;12.3;55
68628;BME280;55611;48.602;9.490;2023-04-15T13:45:30;96210;;;12.6;55
68628;BME280;55611;48.602;9.490;2023-04-15T13:48:00;96210;;;12.9;55
68628;BME280;55611;48.602;9.490;2023-04-15T13:50:31;96210;;;13.1;55.5
68628;BME280;55611;48.602;9.490;2023-04-15T13:53:01;96210;;;13.3;55.5
68628;BME280;55611;48.602;9.490;2023-04-15T13:55:32;96210;;;13.4;55.5
68628;BME280;55611;48.602;9.490;2023-04-15T13:58:02;96210;;;13.5;55.5
68628;BME280;55611;48.602;9.490;2023-04-15T14:00:33;96210;;;13.6;55.5
68628;BME280;55611;48.602;9.490;2023-04-15T14:03:03;96220;;;13.6;55.5
68628;BME280;55611;48.602;9.490;2023-04-15T14:05:34;96210;;;13.8;55.5
68628;BME280;55611;48.602;9.490;2023-04-15T14:08:04;96210;;;13.9;55.5
68628;BME280;55611;48.602;9.490;2023-04-15T14:10:35;96210;;;13.9;55.5
68628;BME280;55611;48.602;9.490;2023-04-15T14:13:05;96210;;;14;55.5
68628;BME280;55611;48.602;9.490;2023-04-15T14:15:36;96210;;;13.9;55.5
68628;BME280;55611;48.602;9.490;2023-04-15T14:18:06;96220;;;13.9;55.5
68628;BME280;55611;48.602;9.490;2023-04-15T14:20:37;96220;;;13.9;55.5
68628;BME280;55611;48.602;9.490;2023-04-15T14:23:07;96230;;;13.7;55.5
68628;BME280;55611;48.602;9.490;2023-04-15T14:25:38;96220;;;13.5;55.5
68628;BME280;55611;48.602;9.490;2023-04-15T14:28:08;96230;;;13.5;55.5
68628;BME280;55611;48.602;9.490;2023-04-15T14:30:39;96230;;;13.5;55.5
68628;BME280;55611;48.602;9.490;2023-04-15T14:33:09;96220;;;13.4;55.5
68628;BME280;55611;48.602;9.490;2023-04-15T14:35:40;96220;;;13.4;55.5